createdAt,value
2022-09-27T00:01:51.132Z,95.02
2022-09-27T00:04:38.774Z,94.67
2022-09-27T00:07:26.312Z,94.08
2022-09-27T00:10:13.947Z,93.91
2022-09-27T00:13:01.501Z,93.53
2022-09-27T00:15:49.125Z,96.99
2022-09-27T00:18:36.731Z,96.47
2022-09-27T00:21:24.288Z,95.81
2022-09-27T00:24:11.868Z,94.78
2022-09-27T00:26:59.446Z,95.72
2022-09-27T00:29:47.002Z,95.06
2022-09-27T00:32:36.552Z,96.39
2022-09-27T00:35:32.976Z,96.79
2022-09-27T00:38:20.533Z,96.96
2022-09-27T00:41:08.159Z,97.48
2022-09-27T00:43:55.761Z,96.02
2022-09-27T00:46:43.358Z,95.27
2022-09-27T00:49:30.962Z,95.63
2022-09-27T00:52:18.521Z,96.63
2022-09-27T00:55:06.064Z,96.69
2022-09-27T00:57:53.592Z,97.32
2022-09-27T01:00:41.132Z,96.71
2022-09-27T01:03:28.666Z,97.27
2022-09-27T01:06:16.212Z,97.76
2022-09-27T01:09:03.751Z,97.97
2022-09-27T01:11:51.310Z,98.04
2022-09-27T01:14:39.021Z,97.61
2022-09-27T01:17:28.540Z,95.70
2022-09-27T01:20:16.096Z,95.95
2022-09-27T01:23:03.638Z,95.61
2022-09-27T01:25:51.249Z,94.43
2022-09-27T01:28:38.786Z,96.12
2022-09-27T01:31:26.423Z,95.82
2022-09-27T01:34:15.988Z,96.88
2022-09-27T01:37:03.546Z,95.50
2022-09-27T01:39:51.113Z,95.76
2022-09-27T01:42:38.664Z,95.58
2022-09-27T01:45:26.234Z,97.12
2022-09-27T01:48:13.817Z,96.19
2022-09-27T01:51:03.361Z,97.03
2022-09-27T01:53:50.922Z,95.27
2022-09-27T01:56:38.481Z,95.85
2022-09-27T01:59:26.027Z,97.23
2022-09-27T02:02:13.627Z,96.71
2022-09-27T02:05:01.199Z,97.16
2022-09-27T02:07:48.750Z,96.63
2022-09-27T02:10:36.286Z,95.20
2022-09-27T02:13:23.841Z,96.68
2022-09-27T02:16:11.456Z,97.03
2022-09-27T02:18:59.051Z,95.03
2022-09-27T02:21:46.609Z,96.28
2022-09-27T02:24:34.189Z,96.78
2022-09-27T02:27:21.744Z,96.12
2022-09-27T02:30:09.292Z,95.30
2022-09-27T02:32:56.819Z,96.08
2022-09-27T02:35:44.398Z,98.27
2022-09-27T02:38:31.944Z,97.62
2022-09-27T02:41:19.498Z,95.97
2022-09-27T02:44:07.056Z,96.97
2022-09-27T02:46:54.601Z,97.73
2022-09-27T02:49:42.135Z,96.27
2022-09-27T02:52:29.698Z,95.78
2022-09-27T02:55:17.225Z,95.63
2022-09-27T02:58:04.824Z,96.92
2022-09-27T03:00:52.365Z,97.13
2022-09-27T03:03:39.917Z,96.97
2022-09-27T03:06:27.448Z,97.36
2022-09-27T03:09:15.099Z,96.06
2022-09-27T03:12:02.759Z,96.06
2022-09-27T03:14:50.304Z,97.23
2022-09-27T03:17:37.853Z,94.91
2022-09-27T03:20:25.407Z,95.52
2022-09-27T03:23:12.947Z,95.32
2022-09-27T03:26:00.502Z,94.96
2022-09-27T03:28:48.035Z,94.31
2022-09-27T03:31:35.597Z,91.78
2022-09-27T03:34:23.135Z,91.95
2022-09-27T03:37:10.709Z,91.05
2022-09-27T03:39:58.235Z,89.31
2022-09-27T03:42:49.628Z,91.12
2022-09-27T03:45:37.344Z,88.96
2022-09-27T03:48:28.126Z,87.96
2022-09-27T03:51:15.966Z,91.31
2022-09-27T03:54:03.524Z,90.73
2022-09-27T03:56:51.066Z,91.18
2022-09-27T03:59:38.617Z,91.31
2022-09-27T04:02:26.223Z,89.78
2022-09-27T04:05:13.799Z,91.06
2022-09-27T04:08:01.327Z,89.71
2022-09-27T04:10:48.901Z,91.55
2022-09-27T04:13:36.421Z,95.93
2022-09-27T04:16:24.028Z,88.82
2022-09-27T04:19:11.610Z,86.16
2022-09-27T04:21:59.312Z,82.71
2022-09-27T04:24:46.843Z,83.84
2022-09-27T04:27:34.442Z,87.75
2022-09-27T04:30:21.973Z,85.00
2022-09-27T04:33:09.506Z,81.66
2022-09-27T04:35:57.022Z,82.30
2022-09-27T04:38:44.586Z,82.52
2022-09-27T04:41:32.122Z,84.85
2022-09-27T04:44:19.675Z,76.80
2022-09-27T04:49:59.619Z,80.11
2022-09-27T04:52:47.159Z,78.52
2022-09-27T04:55:34.710Z,78.22
2022-09-27T04:58:22.266Z,78.39
2022-09-27T05:01:11.865Z,78.49
2022-09-27T05:03:59.437Z,77.42
2022-09-27T05:06:46.981Z,79.02
2022-09-27T05:09:34.498Z,79.66
2022-09-27T05:12:22.053Z,80.38
2022-09-27T05:15:09.568Z,78.73
2022-09-27T05:17:57.110Z,80.15
2022-09-27T05:20:44.649Z,79.50
2022-09-27T05:23:32.210Z,80.65
2022-09-27T05:26:19.723Z,81.26
2022-09-27T05:29:09.322Z,80.04
2022-09-27T05:31:56.849Z,82.04
2022-09-27T05:34:44.472Z,78.44
2022-09-27T05:37:32.000Z,80.13
2022-09-27T05:40:37.068Z,80.24
2022-09-27T05:43:27.023Z,79.96
2022-09-27T05:46:14.652Z,81.79
2022-09-27T05:49:02.425Z,81.44
2022-09-27T05:51:50.003Z,80.52
2022-09-27T05:54:37.537Z,79.45
2022-09-27T05:57:25.079Z,80.19
2022-09-27T06:00:12.596Z,85.86
2022-09-27T06:03:00.219Z,88.91
2022-09-27T06:05:51.221Z,92.79
2022-09-27T06:08:39.046Z,89.39
2022-09-27T06:11:26.579Z,86.54
2022-09-27T06:14:14.129Z,78.87
2022-09-27T06:17:01.704Z,84.85
2022-09-27T06:19:49.288Z,81.20
2022-09-27T06:22:36.813Z,84.05
2022-09-27T06:25:24.392Z,84.33
2022-09-27T06:28:11.918Z,83.45
2022-09-27T06:30:59.610Z,82.19
2022-09-27T06:33:47.201Z,82.63
2022-09-27T06:36:34.844Z,84.22
2022-09-27T06:39:24.349Z,87.22
2022-09-27T06:42:11.909Z,83.72
2022-09-27T06:44:59.511Z,82.67
2022-09-27T06:47:47.070Z,78.37
2022-09-27T06:50:34.627Z,78.04
2022-09-27T06:53:22.190Z,76.07
2022-09-27T06:56:09.718Z,78.08
2022-09-27T06:58:57.277Z,80.80
2022-09-27T07:01:44.942Z,83.04
2022-09-27T07:04:32.603Z,82.55
2022-09-27T07:07:20.269Z,80.12
2022-09-27T07:10:09.990Z,81.62
2022-09-27T07:12:57.715Z,82.40
2022-09-27T07:15:45.267Z,81.15
2022-09-27T07:18:32.822Z,80.13
2022-09-27T07:21:20.355Z,81.46
2022-09-27T07:24:07.905Z,82.86
2022-09-27T07:26:55.465Z,83.64
2022-09-27T07:29:43.025Z,86.44
2022-09-27T07:32:30.596Z,86.83
2022-09-27T07:35:18.151Z,88.68
2022-09-27T07:38:05.704Z,87.99
2022-09-27T07:40:53.298Z,86.97
2022-09-27T07:43:40.886Z,84.02
2022-09-27T07:46:28.418Z,86.38
2022-09-27T07:49:16.115Z,86.10
2022-09-27T07:52:03.741Z,83.49
2022-09-27T07:54:51.305Z,83.08
2022-09-27T07:57:38.821Z,87.31
2022-09-27T08:00:26.373Z,87.83
2022-09-27T08:03:13.910Z,86.64
2022-09-27T08:06:01.467Z,88.26
2022-09-27T08:08:48.983Z,86.70
2022-09-27T08:11:36.542Z,88.99
2022-09-27T08:14:24.085Z,86.88
2022-09-27T08:17:11.659Z,87.05
2022-09-27T08:19:59.219Z,88.37
2022-09-27T08:22:46.780Z,86.13
2022-09-27T08:25:34.317Z,86.78
2022-09-27T08:28:21.904Z,85.77
2022-09-27T08:31:09.461Z,88.36
2022-09-27T08:33:57.025Z,85.61
2022-09-27T08:36:44.567Z,84.48
2022-09-27T08:39:32.176Z,86.12
2022-09-27T08:42:19.720Z,83.34
2022-09-27T08:45:07.408Z,82.97
2022-09-27T08:47:54.958Z,85.72
2022-09-27T08:50:42.634Z,87.42
2022-09-27T08:53:30.187Z,87.71
2022-09-27T08:56:17.750Z,85.17
2022-09-27T08:59:05.545Z,85.11
2022-09-27T09:01:53.191Z,81.26
2022-09-27T09:04:40.754Z,79.52
2022-09-27T09:07:28.304Z,79.68
2022-09-27T09:10:15.867Z,82.21
2022-09-27T09:13:03.397Z,79.88
2022-09-27T09:15:50.982Z,80.76
2022-09-27T09:18:38.516Z,80.92
2022-09-27T09:21:26.094Z,82.62
2022-09-27T09:24:13.680Z,82.83
2022-09-27T09:27:01.259Z,79.03
2022-09-27T09:29:48.804Z,83.16
2022-09-27T09:32:36.378Z,80.27
2022-09-27T09:35:23.922Z,81.80
2022-09-27T09:38:11.485Z,82.11
2022-09-27T09:40:59.030Z,80.26
2022-09-27T09:43:46.710Z,74.84
2022-09-27T09:46:36.236Z,77.59
2022-09-27T09:49:23.797Z,76.45
2022-09-27T09:52:11.342Z,74.70
2022-09-27T09:54:58.886Z,76.12
2022-09-27T09:57:47.545Z,74.63
2022-09-27T10:00:35.148Z,72.40
2022-09-27T10:03:22.700Z,75.36
2022-09-27T10:06:10.248Z,73.52
2022-09-27T10:08:57.784Z,71.63
2022-09-27T10:11:45.310Z,71.58
2022-09-27T10:14:32.846Z,71.67
2022-09-27T10:17:20.368Z,70.05
2022-09-27T10:20:07.925Z,70.70
2022-09-27T10:22:55.473Z,70.82
2022-09-27T10:25:43.032Z,72.43
2022-09-27T10:28:30.598Z,67.84
2022-09-27T10:31:18.236Z,71.21
2022-09-27T10:34:05.852Z,69.03
2022-09-27T10:36:53.410Z,71.56
2022-09-27T10:39:40.976Z,68.69
2022-09-27T10:42:28.492Z,67.32
2022-09-27T10:45:16.051Z,67.81
2022-09-27T10:48:03.604Z,63.54
2022-09-27T10:50:54.649Z,64.71
2022-09-27T10:53:44.537Z,64.21
2022-09-27T10:56:34.098Z,63.94
2022-09-27T10:59:21.743Z,64.53
2022-09-27T11:02:09.279Z,62.01
2022-09-27T11:04:56.902Z,62.90
2022-09-27T11:07:44.455Z,63.74
2022-09-27T11:10:37.591Z,63.12
2022-09-27T11:13:25.293Z,61.91
2022-09-27T11:16:12.890Z,62.18
2022-09-27T11:19:00.513Z,61.70
2022-09-27T11:21:48.372Z,62.75
2022-09-27T11:24:36.008Z,65.99
2022-09-27T11:27:23.541Z,64.10
2022-09-27T11:30:11.172Z,62.70
2022-09-27T11:33:02.544Z,62.74
2022-09-27T11:35:50.097Z,63.41
2022-09-27T11:38:53.940Z,63.95
2022-09-27T11:41:41.783Z,63.47
2022-09-27T11:44:29.313Z,64.02
2022-09-27T11:47:17.035Z,65.18
2022-09-27T11:50:04.675Z,62.80
2022-09-27T11:52:52.230Z,62.90
2022-09-27T11:55:39.759Z,61.90
2022-09-27T11:58:27.902Z,61.09
2022-09-27T12:01:17.476Z,61.30
2022-09-27T12:04:05.173Z,60.62
2022-09-27T12:06:52.711Z,59.83
2022-09-27T12:09:40.267Z,60.28
2022-09-27T12:12:27.817Z,61.73
2022-09-27T12:15:15.366Z,60.07
2022-09-27T12:18:02.906Z,60.46
2022-09-27T12:20:50.506Z,61.53
2022-09-27T12:23:38.047Z,62.50
2022-09-27T12:26:25.672Z,62.61
2022-09-27T12:29:13.215Z,63.37
2022-09-27T12:32:00.899Z,62.08
2022-09-27T12:34:48.475Z,63.44
2022-09-27T12:37:36.055Z,62.19
2022-09-27T12:40:23.663Z,63.70
2022-09-27T12:43:11.227Z,60.80
2022-09-27T12:45:58.766Z,64.38
2022-09-27T12:48:46.407Z,62.03
2022-09-27T12:51:35.925Z,62.13
2022-09-27T12:54:23.469Z,62.85
2022-09-27T12:57:13.619Z,65.07
2022-09-27T13:00:06.850Z,63.73
2022-09-27T13:03:14.068Z,64.26
2022-09-27T13:06:01.910Z,65.38
2022-09-27T13:08:53.794Z,63.18
2022-09-27T13:11:41.659Z,63.68
2022-09-27T13:14:29.212Z,61.95
2022-09-27T13:17:16.760Z,62.53
2022-09-27T13:20:04.321Z,60.70
2022-09-27T13:22:52.004Z,62.43
2022-09-27T13:25:41.532Z,62.70
2022-09-27T13:28:29.085Z,65.45
2022-09-27T13:31:16.781Z,63.12
2022-09-27T13:34:04.426Z,63.42
2022-09-27T13:36:51.970Z,61.77
2022-09-27T13:39:39.533Z,61.93
2022-09-27T13:42:27.052Z,61.47
2022-09-27T13:45:14.610Z,62.17
2022-09-27T13:48:02.151Z,60.41
2022-09-27T13:50:49.708Z,61.55
2022-09-27T13:53:37.266Z,61.91
2022-09-27T13:56:24.832Z,61.21
2022-09-27T13:59:12.398Z,61.66
2022-09-27T14:02:00.117Z,61.68
2022-09-27T14:04:47.735Z,61.99
2022-09-27T14:07:35.299Z,64.61
2022-09-27T14:10:22.852Z,64.55
2022-09-27T14:13:10.414Z,65.40
2022-09-27T14:15:58.020Z,66.81
2022-09-27T14:18:45.585Z,69.29
2022-09-27T14:21:33.118Z,68.37
2022-09-27T14:24:20.677Z,69.11
2022-09-27T14:27:08.249Z,66.66
2022-09-27T14:29:55.772Z,67.21
2022-09-27T14:32:43.349Z,67.79
2022-09-27T14:35:30.876Z,66.12
2022-09-27T14:38:37.216Z,67.09
2022-09-27T14:41:25.856Z,66.92
2022-09-27T14:44:13.430Z,66.49
2022-09-27T14:47:00.975Z,66.53
2022-09-27T14:49:48.571Z,65.13
2022-09-27T14:52:36.103Z,67.94
2022-09-27T14:55:23.667Z,70.50
2022-09-27T14:58:29.489Z,71.98
2022-09-27T15:01:18.733Z,73.03
2022-09-27T15:04:06.423Z,74.78
2022-09-27T15:06:56.023Z,74.46
2022-09-27T15:09:43.587Z,75.01
2022-09-27T15:12:31.152Z,77.03
2022-09-27T15:15:18.689Z,74.33
2022-09-27T15:18:06.332Z,78.37
2022-09-27T15:20:53.866Z,77.67
2022-09-27T15:23:41.426Z,79.44
2022-09-27T15:26:28.977Z,78.37
2022-09-27T15:29:16.599Z,80.87
2022-09-27T15:32:04.172Z,81.43
2022-09-27T15:34:51.731Z,79.09
2022-09-27T15:37:39.292Z,79.98
2022-09-27T15:40:26.904Z,80.59
2022-09-27T15:43:14.444Z,80.58
2022-09-27T15:46:02.332Z,79.96
2022-09-27T15:48:49.941Z,79.70
2022-09-27T15:51:37.530Z,82.54
2022-09-27T15:54:25.062Z,78.26
2022-09-27T15:57:12.617Z,79.57
2022-09-27T16:00:02.150Z,76.97
2022-09-27T16:02:49.812Z,77.26
2022-09-27T16:05:39.409Z,78.31
2022-09-27T16:08:26.972Z,78.87
2022-09-27T16:11:14.537Z,81.17
2022-09-27T16:14:02.072Z,81.36
2022-09-27T16:16:49.649Z,80.71
2022-09-27T16:19:37.195Z,81.04
2022-09-27T16:22:24.766Z,82.41
2022-09-27T16:25:12.319Z,83.45
2022-09-27T16:27:59.876Z,81.87
2022-09-27T16:30:47.435Z,82.49
2022-09-27T16:33:34.998Z,84.05
2022-09-27T16:36:22.550Z,84.19
2022-09-27T16:39:10.112Z,88.62
2022-09-27T16:41:57.665Z,87.91
2022-09-27T16:44:45.220Z,88.31
2022-09-27T16:47:32.759Z,87.76
2022-09-27T16:50:20.312Z,88.37
2022-09-27T16:53:07.848Z,87.94
2022-09-27T16:55:55.426Z,89.62
2022-09-27T16:58:42.956Z,88.83
2022-09-27T17:01:30.591Z,90.05
2022-09-27T17:04:18.158Z,89.36
2022-09-27T17:07:05.720Z,89.78
2022-09-27T17:09:55.250Z,90.50
2022-09-27T17:12:42.807Z,90.16
2022-09-27T17:15:30.336Z,91.15
2022-09-27T17:18:17.889Z,90.27
2022-09-27T17:21:05.491Z,90.75
2022-09-27T17:23:53.050Z,91.59
2022-09-27T17:26:40.599Z,91.01
2022-09-27T17:29:28.185Z,89.57
2022-09-27T17:32:15.730Z,89.37
2022-09-27T17:35:03.296Z,90.44
2022-09-27T17:37:50.847Z,89.99
2022-09-27T17:40:38.472Z,91.87
2022-09-27T17:43:26.029Z,91.77
2022-09-27T17:46:13.655Z,90.29
2022-09-27T17:49:01.239Z,91.18
2022-09-27T17:51:48.819Z,89.15
2022-09-27T17:54:38.806Z,89.25
2022-09-27T17:57:26.385Z,89.30
2022-09-27T18:00:13.938Z,88.89
2022-09-27T18:03:01.575Z,87.95
2022-09-27T18:05:49.155Z,89.56
2022-09-27T18:08:36.704Z,90.26
2022-09-27T18:11:24.270Z,90.06
2022-09-27T18:14:11.891Z,88.97
2022-09-27T18:16:59.523Z,87.67
2022-09-27T18:19:47.097Z,87.88
2022-09-27T18:22:34.635Z,89.21
2022-09-27T18:25:22.200Z,87.47
2022-09-27T18:28:09.759Z,88.22
2022-09-27T18:30:57.483Z,87.55
2022-09-27T18:33:47.036Z,87.82
2022-09-27T18:36:34.597Z,88.23
2022-09-27T18:39:22.131Z,87.27
2022-09-27T18:42:09.708Z,88.37
2022-09-27T18:44:57.307Z,89.08
2022-09-27T18:47:44.856Z,88.43
2022-09-27T18:50:32.395Z,86.62
2022-09-27T18:53:19.965Z,86.22
2022-09-27T18:56:07.526Z,88.36
2022-09-27T18:58:55.093Z,88.80
2022-09-27T19:01:42.645Z,88.22
2022-09-27T19:04:30.197Z,88.36
2022-09-27T19:07:17.742Z,87.62
2022-09-27T19:10:05.308Z,86.46
2022-09-27T19:12:52.849Z,85.71
2022-09-27T19:15:40.443Z,85.99
2022-09-27T19:18:28.052Z,85.50
2022-09-27T19:21:15.622Z,87.27
2022-09-27T19:24:03.166Z,88.52
2022-09-27T19:26:50.727Z,87.49
2022-09-27T19:29:38.263Z,87.91
2022-09-27T19:32:25.897Z,87.68
2022-09-27T19:35:13.443Z,88.57
2022-09-27T19:38:00.994Z,89.44
2022-09-27T19:40:48.893Z,88.77
2022-09-27T19:43:36.569Z,87.34
2022-09-27T19:46:24.216Z,88.23
2022-09-27T19:49:11.965Z,87.66
2022-09-27T19:51:59.544Z,88.26
2022-09-27T19:54:47.117Z,88.06
2022-09-27T19:57:34.688Z,85.85
2022-09-27T20:00:22.231Z,86.39
2022-09-27T20:03:09.825Z,85.86
2022-09-27T20:05:57.409Z,88.36
2022-09-27T20:08:44.985Z,86.47
2022-09-27T20:11:32.535Z,88.49
2022-09-27T20:14:20.115Z,87.51
2022-09-27T20:17:07.647Z,87.02
2022-09-27T20:19:55.204Z,87.92
2022-09-27T20:22:42.740Z,89.33
2022-09-27T20:25:30.390Z,87.04
2022-09-27T20:28:19.938Z,87.97
2022-09-27T20:31:07.574Z,87.38
2022-09-27T20:33:55.149Z,87.54
2022-09-27T20:36:42.685Z,86.89
2022-09-27T20:39:32.258Z,85.78
2022-09-27T20:42:19.810Z,85.92
2022-09-27T20:45:07.363Z,86.56
2022-09-27T20:47:54.904Z,84.92
2022-09-27T20:50:42.462Z,84.47
2022-09-27T20:53:30.021Z,82.87
2022-09-27T20:56:17.637Z,83.96
2022-09-27T20:59:05.181Z,85.45
2022-09-27T21:01:52.789Z,85.48
2022-09-27T21:04:40.374Z,83.22
2022-09-27T21:07:27.952Z,83.88
2022-09-27T21:10:15.491Z,86.13
2022-09-27T21:13:03.061Z,86.09
2022-09-27T21:15:50.649Z,88.21
2022-09-27T21:18:38.260Z,90.04
2022-09-27T21:21:25.785Z,88.87
2022-09-27T21:24:13.335Z,88.74
2022-09-27T21:27:01.027Z,89.59
2022-09-27T21:29:48.565Z,88.92
2022-09-27T21:32:36.118Z,87.80
2022-09-27T21:35:23.672Z,87.78
2022-09-27T21:38:11.221Z,88.05
2022-09-27T21:40:58.800Z,87.80
2022-09-27T21:43:46.402Z,88.79
2022-09-27T21:46:34.022Z,90.68
2022-09-27T21:49:21.605Z,89.28
2022-09-27T21:52:09.146Z,89.26
2022-09-27T21:54:56.705Z,89.91
2022-09-27T21:57:44.245Z,88.61
2022-09-27T22:00:31.880Z,87.93
2022-09-27T22:03:19.487Z,88.74
2022-09-27T22:06:07.036Z,87.78
2022-09-27T22:08:54.602Z,88.96
2022-09-27T22:11:42.130Z,88.74
2022-09-27T22:14:29.682Z,88.50
2022-09-27T22:17:17.233Z,89.39
2022-09-27T22:20:04.781Z,91.59
2022-09-27T22:22:52.311Z,89.62
2022-09-27T22:25:39.860Z,89.71
2022-09-27T22:28:27.409Z,89.43
2022-09-27T22:31:15.190Z,89.15
2022-09-27T22:34:02.854Z,87.93
2022-09-27T22:36:50.404Z,86.23
2022-09-27T22:39:37.924Z,87.25
2022-09-27T22:42:25.479Z,87.04
2022-09-27T22:45:13.031Z,84.74
2022-09-27T22:48:00.581Z,87.09
2022-09-27T22:50:48.126Z,86.28
2022-09-27T22:53:35.672Z,85.56
2022-09-27T22:56:23.219Z,85.48
2022-09-27T22:59:10.757Z,85.95
2022-09-27T23:01:58.325Z,86.26
2022-09-27T23:04:45.872Z,86.60
2022-09-27T23:07:33.437Z,86.23
2022-09-27T23:10:20.963Z,84.76
2022-09-27T23:13:08.532Z,86.69
2022-09-27T23:15:56.092Z,83.86
2022-09-27T23:18:43.653Z,86.18
2022-09-27T23:21:31.190Z,86.50
2022-09-27T23:24:18.736Z,84.01
2022-09-27T23:27:06.279Z,83.91
2022-09-27T23:29:53.834Z,84.73
2022-09-27T23:32:41.372Z,85.37
2022-09-27T23:35:28.924Z,83.61
2022-09-27T23:38:16.456Z,84.86
2022-09-27T23:41:04.007Z,82.54
2022-09-27T23:43:51.551Z,83.08
2022-09-27T23:46:39.152Z,83.85
2022-09-27T23:49:26.729Z,84.01
2022-09-27T23:52:14.291Z,82.40
2022-09-27T23:55:01.861Z,84.18
2022-09-27T23:57:49.383Z,83.43
